עמוד ראשי
METAR-TAF:

METAR-TAF

שדות תעופה :

San José del Cabo, מקסיקו

קו רוחב: 23-09N, קו אורך: 109-42W, גובה: 109מטר

תצפית מזג אוויר נוכחית

הדו"ח נערך לפני 6 שעות ו 45דקות, בשעה 04:40 UTC
רוח 3קשר מכיוון צפון/צפון-מזרח
טמפרטורת 24 צלסיוס
לחות 69%
לחץ 1010 hPa
ראות: 19.3קילומטר
שמיים נקיים

METAR: MMSD 150440Z 02003KT 12SM SKC 24/18 A2983

זמן: 05:25 (11:25 UTC)

תחזית

הדו"ח נערך לפני 5 שעות ו 46דקות, בשעה 05:39 UTC
תחזית בתוקף מ 15 ב 06 UTC עד 16 ב 06 UTC
רוח 5קשר מכיוון צפון
ראות: 10קילומטר
שמיים נקיים
מ 15 ב 1700UTC
רוח 15קשר מכיוון דרום/דרום-מזרח
ראות: 10קילומטר
שמיים נקיים
מ 16 ב 0000UTC
רוח 5קשר מכיוון דרום/דרום-מערב
ראות: 10קילומטר
שמיים נקיים

TAF: MMSD 150539Z 1506/1606 35005KT P6SM SKC FM151700 15015KT P6SM SKC FM160000 20005KT P6SM SKC

תצפיות ותחזיות מזג אוויר לגבי יותר מ- 4,000 שדות תעופה ברחבי העולם. דוחות METAR ו- TAF.

התחנות הזמינות מסומנות בנקודות צהובות ואדומות על גבי המפה.

העבר את העכבר לנקודה הצבעונית על מנת לראות את שם התחנה.

לאחר מכן, לחץ כדי לראות את תוכן ואת תחזיות מזג האוויר.

כדי לשנות את המפה: לחץ על הכפתורים הירוקים עם הפלוס השחור כדי להתקרב; על הכפתור הירוק עם המקף כדי להתרחק; או בחיצים הירוקים למפות סמוכות.


METAR-TAF: